1873 NOT_NAMED (1873042S14056)


IBTrACS version v04r00. Visit IBTrACS website for data access.
Please direct all questions to the IBTrACS Q and A forum

Storm track - Intensity - Wind Radii - Intensity Data - Source Data - All data

Summary Information

Storm ID 1873042S14056
Start Feb 11 06Z
End Feb 18 06Z
ATCF IDs
Track status Best track data.

Storm track plot

Map of storm track

Intensity plots

No Intensity information for this storm


Radial wind information

No radial wind information for this storm


Position and Intensity Table

BASIN ISO_TIME_________ NATURE LAT LON
degrees north degrees east
SI 1873-02-11 06:00:00 NR -14.30 56.40
SI 09:00:00 NR -14.52 56.10
SI 12:00:00 NR -14.74 55.81
SI 15:00:00 NR -14.95 55.52
SI 18:00:00 NR -15.16 55.25
SI 21:00:00 NR -15.36 54.98
SI 1873-02-12 00:00:00 NR -15.55 54.73
SI 03:00:00 NR -15.73 54.50
SI 06:00:00 NR -15.90 54.30
SI 09:00:00 NR -16.05 54.12
SI 12:00:00 NR -16.20 53.97
SI 15:00:00 NR -16.33 53.83
SI 18:00:00 NR -16.46 53.71
SI 21:00:00 NR -16.59 53.60
SI 1873-02-13 00:00:00 NR -16.72 53.50
SI 03:00:00 NR -16.86 53.40
SI 06:00:00 NR -17.00 53.30
SI 09:00:00 NR -17.16 53.17
SI 12:00:00 NR -17.34 53.05
SI 15:00:00 NR -17.51 52.92
SI 18:00:00 NR -17.69 52.81
SI 21:00:00 NR -17.87 52.69
SI 1873-02-14 00:00:00 NR -18.05 52.59
SI 03:00:00 NR -18.23 52.49
SI 06:00:00 NR -18.40 52.40
SI 09:00:00 NR -18.53 52.32
SI 12:00:00 NR -18.65 52.25
SI 15:00:00 NR -18.78 52.19
SI 18:00:00 NR -18.90 52.14
SI 21:00:00 NR -19.04 52.10
SI 1873-02-15 00:00:00 NR -19.20 52.06
SI 03:00:00 NR -19.38 52.03
SI 06:00:00 NR -19.60 52.00
SI 09:00:00 NR -19.85 51.95
SI 12:00:00 NR -20.13 51.89
SI 15:00:00 NR -20.43 51.85
SI 18:00:00 NR -20.76 51.82
SI 21:00:00 NR -21.12 51.80
SI 1873-02-16 00:00:00 NR -21.49 51.81
SI 03:00:00 NR -21.89 51.84
SI 06:00:00 NR -22.30 51.90
SI 09:00:00 NR -22.77 52.01
SI 12:00:00 NR -23.26 52.16
SI 15:00:00 NR -23.77 52.33
SI 18:00:00 NR -24.28 52.52
SI 21:00:00 NR -24.77 52.72
SI 1873-02-17 00:00:00 NR -25.23 52.92
SI 03:00:00 NR -25.64 53.12
SI 06:00:00 NR -26.00 53.30
SI 09:00:00 NR -26.29 53.46
SI 12:00:00 NR -26.51 53.61
SI 15:00:00 NR -26.67 53.73
SI 18:00:00 NR -26.79 53.84
SI 21:00:00 NR -26.88 53.94
SI 1873-02-18 00:00:00 NR -26.93 54.03
SI 03:00:00 NR -26.97 54.12
SI 06:00:00 NR -27.00 54.20

Source Information

Agency Information
USA
TOKYO
CMA
HKO
NEWDELHI
REUNION WMO-Best-Tracks.txt:Line=994:xxxx873145
BOM
NADI
WELLINGTON
DS824
TD9636
TD9635
NEUMANN
MLC

All available IBTrACS Data

SEASON BASIN SUBBASIN ISO_TIME_________ NATURE LAT LON WMO AGENCY DIST2LAND LANDFALL IFLAG USA SSHS REUNION LAT REUNION LON REUNION TYPE REUNION TNUM STORM SPEED STORM DIR
Year degrees north degrees east km km 1 degrees north degrees east 1 kts degrees
1873 SI MM 1873-02-11 06:00:00 NR -14.30 56.40 reunion 642 607 _____O________ -1 -14.30 56.40 99 9.90 7 233
1873 SI MM 09:00:00 NR -14.52 56.10 607 572 _____P________ -1 -14.52 56.10 99 7 233
1873 SI MM 12:00:00 NR -14.74 55.81 572 538 _____P________ -1 -14.74 55.81 99 7 233
1873 SI MM 15:00:00 NR -14.95 55.52 537 515 _____P________ -1 -14.95 55.52 99 7 232
1873 SI MM 18:00:00 NR -15.16 55.25 504 482 _____P________ -1 -15.16 55.25 99 7 232
1873 SI MM 21:00:00 NR -15.36 54.98 482 450 _____P________ -1 -15.36 54.98 99 6 232
1873 SI MM 1873-02-12 00:00:00 NR -15.55 54.73 450 429 _____P________ -1 -15.55 54.73 99 6 231
1873 SI MM 03:00:00 NR -15.73 54.50 429 410 _____P________ -1 -15.73 54.50 99 5 230
1873 SI MM 06:00:00 NR -15.90 54.30 reunion 410 391 _____O________ -1 -15.90 54.30 99 9.90 5 229
1873 SI MM 09:00:00 NR -16.05 54.12 393 382 _____P________ -1 -16.05 54.12 99 4 227
1873 SI MM 12:00:00 NR -16.20 53.97 385 367 _____P________ -1 -16.20 53.97 99 4 225
1873 SI MM 15:00:00 NR -16.33 53.83 367 360 _____P________ -1 -16.33 53.83 99 4 223
1873 SI MM 18:00:00 NR -16.46 53.71 363 353 _____P________ -1 -16.46 53.71 99 3 220
1873 SI MM 21:00:00 NR -16.59 53.60 357 352 _____P________ -1 -16.59 53.60 99 3 218
1873 SI MM 1873-02-13 00:00:00 NR -16.72 53.50 352 347 _____P________ -1 -16.72 53.50 99 3 216
1873 SI MM 03:00:00 NR -16.86 53.40 351 342 _____P________ -1 -16.86 53.40 99 3 214
1873 SI MM 06:00:00 NR -17.00 53.30 reunion 346 341 _____O________ -1 -17.00 53.30 99 9.90 4 215
1873 SI MM 09:00:00 NR -17.16 53.17 346 337 _____P________ -1 -17.16 53.17 99 4 215
1873 SI MM 12:00:00 NR -17.34 53.05 331 331 _____P________ -1 -17.34 53.05 99 4 214
1873 SI MM 15:00:00 NR -17.51 52.92 332 329 _____P________ -1 -17.51 52.92 99 4 213
1873 SI MM 18:00:00 NR -17.69 52.81 334 327 _____P________ -1 -17.69 52.81 99 4 212
1873 SI MM 21:00:00 NR -17.87 52.69 331 321 _____P________ -1 -17.87 52.69 99 4 210
1873 SI MM 1873-02-14 00:00:00 NR -18.05 52.59 330 320 _____P________ -1 -18.05 52.59 99 4 209
1873 SI MM 03:00:00 NR -18.23 52.49 322 313 _____P________ -1 -18.23 52.49 99 4 207
1873 SI MM 06:00:00 NR -18.40 52.40 reunion 316 307 _____O________ -1 -18.40 52.40 99 9.90 3 207
1873 SI MM 09:00:00 NR -18.53 52.32 307 307 _____P________ -1 -18.53 52.32 99 3 209
1873 SI MM 12:00:00 NR -18.65 52.25 310 300 _____P________ -1 -18.65 52.25 99 3 207
1873 SI MM 15:00:00 NR -18.78 52.19 302 295 _____P________ -1 -18.78 52.19 99 3 203
1873 SI MM 18:00:00 NR -18.90 52.14 295 295 _____P________ -1 -18.90 52.14 99 3 197
1873 SI MM 21:00:00 NR -19.04 52.10 298 298 _____P________ -1 -19.04 52.10 99 3 195
1873 SI MM 1873-02-15 00:00:00 NR -19.20 52.06 305 295 _____P________ -1 -19.20 52.06 99 4 192
1873 SI MM 03:00:00 NR -19.38 52.03 304 304 _____P________ -1 -19.38 52.03 99 4 188
1873 SI MM 06:00:00 NR -19.60 52.00 reunion 310 306 _____O________ -1 -19.60 52.00 99 9.90 5 190
1873 SI MM 09:00:00 NR -19.85 51.95 306 306 _____P________ -1 -19.85 51.95 99 5 190
1873 SI MM 12:00:00 NR -20.13 51.89 318 318 _____P________ -1 -20.13 51.89 99 6 188
1873 SI MM 15:00:00 NR -20.43 51.85 326 316 _____P________ -1 -20.43 51.85 99 6 186
1873 SI MM 18:00:00 NR -20.76 51.82 325 325 _____P________ -1 -20.76 51.82 99 7 182
1873 SI MM 21:00:00 NR -21.12 51.80 335 335 _____P________ -1 -21.12 51.80 99 7 0
1873 SI MM 1873-02-16 00:00:00 NR -21.49 51.81 353 353 _____P________ -1 -21.49 51.81 99 8 178
1873 SI MM 03:00:00 NR -21.89 51.84 362 355 _____P________ -1 -21.89 51.84 99 8 174
1873 SI MM 06:00:00 NR -22.30 51.90 reunion 366 366 _____O________ -1 -22.30 51.90 99 9.90 9 170
1873 SI MM 09:00:00 NR -22.77 52.01 379 374 _____P________ -1 -22.77 52.01 99 10 166
1873 SI MM 12:00:00 NR -23.26 52.16 389 389 _____P________ -1 -23.26 52.16 99 11 164
1873 SI MM 15:00:00 NR -23.77 52.33 415 415 _____P________ -1 -23.77 52.33 99 11 162
1873 SI MM 18:00:00 NR -24.28 52.52 441 441 _____P________ -1 -24.28 52.52 99 11 160
1873 SI MM 21:00:00 NR -24.77 52.72 473 467 _____P________ -1 -24.77 52.72 99 10 159
1873 SI MM 1873-02-17 00:00:00 NR -25.23 52.92 500 500 _____P________ -1 -25.23 52.92 99 10 158
1873 SI MM 03:00:00 NR -25.64 53.12 530 530 _____P________ -1 -25.64 53.12 99 8 156
1873 SI MM 06:00:00 NR -26.00 53.30 reunion 563 563 _____O________ -1 -26.00 53.30 99 9.90 7 154
1873 SI MM 09:00:00 NR -26.29 53.46 587 587 _____P________ -1 -26.29 53.46 99 6 152
1873 SI MM 12:00:00 NR -26.51 53.61 605 605 _____P________ -1 -26.51 53.61 99 5 148
1873 SI MM 15:00:00 NR -26.67 53.73 622 619 _____P________ -1 -26.67 53.73 99 4 144
1873 SI MM 18:00:00 NR -26.79 53.84 630 627 _____P________ -1 -26.79 53.84 99 3 137
1873 SI MM 21:00:00 NR -26.88 53.94 638 635 _____P________ -1 -26.88 53.94 99 2 130
1873 SI MM 1873-02-18 00:00:00 NR -26.93 54.03 635 633 _____P________ -1 -26.93 54.03 99 2 120
1873 SI MM 03:00:00 NR -26.97 54.12 643 641 _____P________ -1 -26.97 54.12 99 2 114
1873 SI MM 06:00:00 NR -27.00 54.20 reunion 641 _____O________ -1 -27.00 54.20 99 9.90 2 111